メインページ
METAR-TAF:

METAR-TAF

空港 :

マラボ国際空港

マラボ, 赤道ギニア

緯度: 03-45-18N, 経度: 08-42-31E, 海抜: 23m

現時点の気象観測

当レポートは39分前の20:00(UTC)に作成
西/南西の風 4kt
気温 25°C
湿度 83%
気圧 1014 hPa
視程10km以上
高度1000ftの雲はほとんどない

METAR: FGSL 172000Z 24004KT 9999 FEW010 25/22 Q1014 NOSIG

時間: 21:39 (20:39 UTC)

予報

当レポートは3時間39分前の17:00(UTC)に作成
予報は17日の 18時(UTC)から 18日の 24時(UTC)まで有効
南西の風 6kt
視程10km以上
高度1000ftの雲は散在している
高度2000ftの雲はほとんどない, 積乱雲.
17日の 19時(UTC)から 17日の 21時(UTC)まで徐々に
激しい雷雨
確率 30% :
17日の 23時(UTC)から 18日の 06時(UTC)まで一時的に
視程: 4000m
高度800ftの千切れ雲あり
高度1600ftの雲はほとんどない, 積乱雲.
激しい雷雨, 雨, 霧雨
18日の 06時(UTC)から 18日の 08時(UTC)まで徐々に
確率 30%
18日の 13時(UTC)から 18日の 18時(UTC)まで
視程: 4000m
高度800ftの千切れ雲あり
高度1600ftの雲はほとんどない, 積乱雲.
雨, 霧雨

TAF: FGSL 171700Z 1718/1824 23006KT 9999 SCT010 FEW020CB BECMG 1719/1721 TS PROB30 TEMPO 1723/1806 4000 TSRADZ BKN008 FEW016CB BECMG 1806/1808 NSW PROB30 1813/1818 4000 RADZ BKN008 FEW016CB

4,000以上の空港の気象観測と天気予報(METAR報とTAF報)

利用可能な観測所は地図上に黄色い丸と赤い丸で示す。

丸の上にカーソルを重ねると観測所名を参照できる。

次にクリックすると気象観測と天気予報を参照できる。

マップの切り替え:黒色「×」印の緑ボタンをクリックして拡大、「-」印の緑ボタンをクリックして縮小、緑色の三角印をクリックして隣りの地図に切り替え


METAR-TAF: